createdAt,value
2022-12-20T00:02:30.964Z,15.13
2022-12-20T00:05:36.081Z,13.00
2022-12-20T00:08:38.145Z,14.43
2022-12-20T00:11:41.170Z,11.10
2022-12-20T00:14:42.837Z,12.40
2022-12-20T00:17:44.487Z,11.63
2022-12-20T00:20:46.506Z,12.83
2022-12-20T00:23:48.192Z,11.77
2022-12-20T00:26:50.353Z,11.90
2022-12-20T00:29:52.004Z,13.47
2022-12-20T00:32:53.620Z,14.63
2022-12-20T00:35:56.363Z,12.80
2022-12-20T00:38:58.633Z,12.40
2022-12-20T00:42:00.225Z,12.70
2022-12-20T00:45:01.923Z,13.00
2022-12-20T00:48:03.600Z,12.70
2022-12-20T00:51:06.879Z,12.47
2022-12-20T00:54:09.299Z,11.20
2022-12-20T00:57:11.252Z,12.57
2022-12-20T01:00:13.071Z,14.70
2022-12-20T01:03:14.898Z,13.30
2022-12-20T01:06:17.739Z,13.23
2022-12-20T01:09:19.342Z,13.23
2022-12-20T01:12:21.553Z,11.90
2022-12-20T01:15:23.194Z,12.27
2022-12-20T01:18:24.786Z,10.67
2022-12-20T01:21:27.234Z,11.47
2022-12-20T01:24:29.063Z,10.77
2022-12-20T01:27:30.687Z,12.00
2022-12-20T01:30:32.306Z,11.67
2022-12-20T01:33:34.792Z,10.07
2022-12-20T01:36:38.285Z,10.53
2022-12-20T01:39:40.025Z,10.30
2022-12-20T01:42:41.622Z,11.00
2022-12-20T01:45:43.798Z,10.50
2022-12-20T01:48:48.710Z,10.77
2022-12-20T01:51:52.853Z,10.93
2022-12-20T01:55:13.135Z,10.93
2022-12-20T01:58:16.431Z,11.73
2022-12-20T02:01:18.120Z,10.87
2022-12-20T02:04:19.820Z,11.63
2022-12-20T02:07:24.756Z,9.73
2022-12-20T02:10:29.901Z,10.97
2022-12-20T02:13:48.034Z,10.87
2022-12-20T02:16:58.718Z,9.83
2022-12-20T02:20:18.957Z,9.37
2022-12-20T02:23:26.703Z,9.43
2022-12-20T02:26:47.101Z,10.33
2022-12-20T02:29:54.798Z,10.40
2022-12-20T02:33:01.111Z,13.53
2022-12-20T02:36:03.508Z,11.40
2022-12-20T02:39:05.441Z,10.47
2022-12-20T02:42:11.287Z,10.23
2022-12-20T02:45:15.937Z,10.90
2022-12-20T02:48:18.431Z,12.47
2022-12-20T02:51:21.570Z,12.53
2022-12-20T02:54:23.417Z,10.13
2022-12-20T02:57:31.732Z,9.87
2022-12-20T03:00:37.869Z,11.50
2022-12-20T03:03:39.970Z,11.07
2022-12-20T03:06:55.543Z,10.83
2022-12-20T03:09:57.129Z,8.13
2022-12-20T03:12:58.726Z,9.50
2022-12-20T03:16:00.700Z,9.47
2022-12-20T03:19:02.653Z,9.73
2022-12-20T03:22:04.335Z,9.93
2022-12-20T03:25:07.155Z,8.97
2022-12-20T03:28:10.480Z,8.90
2022-12-20T03:31:12.394Z,8.50
2022-12-20T03:34:20.698Z,9.80
2022-12-20T03:37:22.429Z,9.13
2022-12-20T03:40:24.251Z,11.23
2022-12-20T03:43:26.295Z,10.87
2022-12-20T03:46:28.131Z,10.43
2022-12-20T03:49:30.284Z,9.40
2022-12-20T03:52:32.367Z,11.00
2022-12-20T03:55:33.998Z,11.20
2022-12-20T03:58:35.698Z,9.93
2022-12-20T04:01:38.798Z,8.90
2022-12-20T04:04:40.858Z,9.30
2022-12-20T04:07:42.539Z,8.10
2022-12-20T04:11:02.850Z,7.47
2022-12-20T04:14:08.946Z,8.00
2022-12-20T04:17:11.076Z,8.43
2022-12-20T04:20:19.895Z,8.33
2022-12-20T04:23:35.893Z,8.37
2022-12-20T04:26:38.715Z,9.50
2022-12-20T04:29:40.756Z,12.33
2022-12-20T04:32:45.758Z,10.90
2022-12-20T04:35:47.911Z,11.87
2022-12-20T04:38:49.764Z,12.07
2022-12-20T04:41:51.843Z,11.40
2022-12-20T04:44:53.594Z,12.20
2022-12-20T04:48:14.775Z,13.47
2022-12-20T04:51:21.461Z,11.87
2022-12-20T04:54:26.185Z,12.13
2022-12-20T04:57:33.996Z,12.13
2022-12-20T05:00:36.444Z,12.97
2022-12-20T05:03:47.943Z,12.83
2022-12-20T05:06:49.823Z,12.83
2022-12-20T05:09:51.640Z,15.37
2022-12-20T05:12:53.385Z,18.13
2022-12-20T05:16:15.294Z,16.10
2022-12-20T05:19:17.913Z,14.50
2022-12-20T05:22:39.054Z,12.53
2022-12-20T05:26:04.782Z,16.17
2022-12-20T05:29:06.566Z,16.43
2022-12-20T05:32:08.644Z,15.93
2022-12-20T05:35:17.017Z,19.23
2022-12-20T05:38:21.565Z,14.77
2022-12-20T05:41:23.455Z,18.77
2022-12-20T05:44:27.215Z,14.30
2022-12-20T05:47:33.970Z,20.27
2022-12-20T05:50:41.458Z,15.23
2022-12-20T05:54:01.208Z,17.30
2022-12-20T05:57:23.074Z,17.43
2022-12-20T06:00:24.741Z,24.47
2022-12-20T06:03:27.244Z,20.10
2022-12-20T06:06:30.037Z,14.90
2022-12-20T06:09:32.903Z,14.83
2022-12-20T06:12:44.720Z,14.20
2022-12-20T06:15:46.973Z,17.63
2022-12-20T06:18:48.828Z,14.97
2022-12-20T06:21:51.478Z,16.63
2022-12-20T06:24:59.377Z,19.47
2022-12-20T06:28:07.619Z,16.20
2022-12-20T06:31:10.671Z,22.60
2022-12-20T06:34:18.964Z,21.43
2022-12-20T06:37:20.782Z,17.33
2022-12-20T06:40:22.790Z,21.63
2022-12-20T06:43:24.381Z,17.07
2022-12-20T06:46:27.428Z,18.33
2022-12-20T06:49:31.049Z,16.33
2022-12-20T06:52:33.508Z,35.57
2022-12-20T06:55:35.265Z,26.97
2022-12-20T06:58:37.033Z,21.20
2022-12-20T07:01:39.105Z,21.33
2022-12-20T07:04:41.184Z,19.80
2022-12-20T07:07:45.465Z,17.83
2022-12-20T07:10:47.276Z,16.10
2022-12-20T07:13:50.360Z,18.60
2022-12-20T07:16:52.085Z,15.40
2022-12-20T07:19:53.748Z,17.30
2022-12-20T07:22:55.384Z,18.60
2022-12-20T07:25:57.740Z,16.63
2022-12-20T07:28:59.435Z,16.67
2022-12-20T07:32:01.170Z,16.53
2022-12-20T07:35:02.868Z,16.10
2022-12-20T07:38:04.495Z,17.63
2022-12-20T07:41:10.202Z,14.17
2022-12-20T07:44:11.982Z,18.73
2022-12-20T07:47:13.633Z,19.63
2022-12-20T07:50:15.214Z,24.27
2022-12-20T07:53:17.953Z,22.90
2022-12-20T07:56:21.143Z,24.33
2022-12-20T07:59:31.606Z,29.53
2022-12-20T08:02:37.207Z,26.43
2022-12-20T08:05:41.074Z,25.70
2022-12-20T08:08:46.511Z,23.13
2022-12-20T08:11:49.040Z,24.07
2022-12-20T08:14:56.144Z,27.07
2022-12-20T08:17:57.841Z,31.53
2022-12-20T08:20:59.392Z,29.87
2022-12-20T08:24:00.963Z,26.83
2022-12-20T08:27:02.708Z,38.00
2022-12-20T08:30:04.934Z,29.47
2022-12-20T08:33:06.694Z,69.77
2022-12-20T08:36:09.930Z,39.00
2022-12-20T08:39:11.693Z,31.30
2022-12-20T08:42:13.347Z,59.00
2022-12-20T08:45:15.353Z,29.77
2022-12-20T08:48:17.561Z,29.93
2022-12-20T08:51:19.236Z,29.40
2022-12-20T08:54:20.958Z,32.20
2022-12-20T08:57:22.543Z,28.27
2022-12-20T09:00:24.171Z,22.50
2022-12-20T09:03:26.095Z,25.07
2022-12-20T09:06:27.835Z,24.83
2022-12-20T09:09:29.518Z,25.83
2022-12-20T09:12:31.148Z,28.43
2022-12-20T09:15:36.225Z,30.00
2022-12-20T09:18:37.820Z,30.50
2022-12-20T09:21:39.513Z,28.77
2022-12-20T09:24:41.191Z,26.67
2022-12-20T09:27:42.885Z,26.67
2022-12-20T09:30:44.532Z,23.70
2022-12-20T09:33:46.615Z,23.67
2022-12-20T09:36:48.277Z,23.20
2022-12-20T09:39:51.448Z,22.67
2022-12-20T09:42:53.383Z,22.00
2022-12-20T09:45:56.675Z,20.77
2022-12-20T09:48:58.396Z,21.13
2022-12-20T09:52:15.455Z,21.10
2022-12-20T09:55:20.348Z,20.37
2022-12-20T09:58:21.961Z,24.10
2022-12-20T10:01:26.151Z,45.27
2022-12-20T10:04:31.300Z,76.47
2022-12-20T10:07:36.170Z,35.37
2022-12-20T10:10:43.904Z,68.17
2022-12-20T10:13:46.627Z,229.23
2022-12-20T10:16:52.350Z,48.20
2022-12-20T10:20:05.048Z,31.77
2022-12-20T10:23:17.842Z,20.27
2022-12-20T10:26:19.423Z,23.10
2022-12-20T10:29:24.114Z,22.30
2022-12-20T10:32:27.437Z,30.03
2022-12-20T10:35:31.612Z,33.63
2022-12-20T10:38:44.036Z,40.47
2022-12-20T10:41:48.921Z,21.17
2022-12-20T10:44:50.656Z,20.03
2022-12-20T10:47:58.066Z,22.90
2022-12-20T10:51:02.245Z,23.77
2022-12-20T10:54:04.210Z,21.00
2022-12-20T10:57:18.543Z,17.83
2022-12-20T11:00:30.368Z,17.70
2022-12-20T11:03:32.449Z,18.53
2022-12-20T11:06:37.347Z,17.97
2022-12-20T11:09:39.090Z,17.83
2022-12-20T11:12:52.492Z,18.30
2022-12-20T11:15:57.640Z,20.73
2022-12-20T11:19:02.684Z,18.73
2022-12-20T11:22:25.483Z,20.37
2022-12-20T11:25:33.172Z,18.37
2022-12-20T11:28:40.546Z,19.13
2022-12-20T11:32:11.669Z,18.57
2022-12-20T11:35:27.937Z,19.97
2022-12-20T11:38:43.917Z,19.17
2022-12-20T11:41:51.701Z,25.37
2022-12-20T11:45:08.507Z,21.03
2022-12-20T11:48:24.690Z,20.97
2022-12-20T11:51:44.124Z,18.97
2022-12-20T11:54:53.220Z,23.97
2022-12-20T11:58:19.706Z,17.20
2022-12-20T12:01:26.408Z,17.33
2022-12-20T12:04:31.761Z,19.33
2022-12-20T12:07:34.493Z,16.93
2022-12-20T12:10:37.393Z,15.63
2022-12-20T12:13:40.271Z,18.20
2022-12-20T12:16:45.904Z,16.07
2022-12-20T12:19:49.761Z,16.07
2022-12-20T12:22:53.564Z,17.33
2022-12-20T12:25:55.317Z,18.17
2022-12-20T12:29:01.227Z,16.23
2022-12-20T12:32:06.544Z,15.13
2022-12-20T12:35:31.592Z,16.53
2022-12-20T12:38:45.906Z,17.17
2022-12-20T12:42:01.195Z,18.40
2022-12-20T12:45:08.022Z,18.77
2022-12-20T12:48:12.686Z,20.17
2022-12-20T12:51:15.605Z,21.17
2022-12-20T12:54:28.553Z,18.43
2022-12-20T12:57:50.081Z,17.87
2022-12-20T13:00:53.339Z,22.20
2022-12-20T13:03:55.070Z,18.50
2022-12-20T13:06:59.153Z,21.03
2022-12-20T13:10:01.659Z,22.13
2022-12-20T13:13:12.400Z,18.20
2022-12-20T13:16:42.038Z,17.37
2022-12-20T13:19:52.279Z,18.87
2022-12-20T13:23:09.323Z,18.27
2022-12-20T13:26:41.465Z,17.93
2022-12-20T13:30:01.354Z,17.00
2022-12-20T13:33:15.693Z,17.43
2022-12-20T13:36:17.530Z,16.27
2022-12-20T13:39:22.231Z,16.07
2022-12-20T13:42:37.190Z,16.37
2022-12-20T13:45:39.416Z,15.67
2022-12-20T13:48:47.235Z,20.27
2022-12-20T13:51:48.853Z,17.00
2022-12-20T13:54:53.693Z,16.63
2022-12-20T13:57:55.402Z,19.27
2022-12-20T14:01:16.758Z,19.83
2022-12-20T14:04:19.855Z,19.83
2022-12-20T14:07:21.629Z,17.60
2022-12-20T14:10:24.159Z,19.00
2022-12-20T14:13:27.008Z,19.47
2022-12-20T14:16:29.606Z,21.33
2022-12-20T14:19:31.461Z,20.90
2022-12-20T14:22:34.081Z,21.77
2022-12-20T14:25:38.923Z,24.70
2022-12-20T14:28:42.029Z,27.63
2022-12-20T14:31:44.866Z,23.13
2022-12-20T14:34:47.737Z,22.70
2022-12-20T14:37:53.612Z,20.00
2022-12-20T14:40:56.051Z,22.03
2022-12-20T14:43:59.722Z,23.13
2022-12-20T14:47:22.423Z,24.77
2022-12-20T14:50:34.715Z,24.70
2022-12-20T14:53:37.792Z,25.53
2022-12-20T14:56:44.971Z,23.17
2022-12-20T14:59:56.518Z,23.83
2022-12-20T15:03:01.949Z,30.23
2022-12-20T15:06:03.894Z,32.40
2022-12-20T15:09:05.677Z,28.23
2022-12-20T15:12:08.327Z,29.20
2022-12-20T15:15:28.896Z,26.67
2022-12-20T15:18:31.574Z,27.60
2022-12-20T15:21:38.557Z,35.03
2022-12-20T15:24:40.384Z,31.43
2022-12-20T15:27:42.138Z,33.23
2022-12-20T15:30:44.318Z,34.97
2022-12-20T15:33:46.364Z,33.60
2022-12-20T15:36:48.109Z,34.43
2022-12-20T15:39:49.661Z,34.50
2022-12-20T15:42:51.626Z,33.00
2022-12-20T15:45:54.187Z,34.80
2022-12-20T15:48:55.802Z,32.43
2022-12-20T15:51:57.614Z,30.73
2022-12-20T15:54:59.179Z,29.30
2022-12-20T15:58:00.779Z,28.43
2022-12-20T16:01:03.502Z,61.07
2022-12-20T16:04:05.666Z,47.20
2022-12-20T16:07:12.458Z,33.30
2022-12-20T16:10:15.358Z,32.50
2022-12-20T16:13:21.319Z,33.30
2022-12-20T16:16:25.201Z,29.17
2022-12-20T16:19:26.915Z,33.27
2022-12-20T16:22:28.593Z,35.17
2022-12-20T16:25:32.051Z,40.37
2022-12-20T16:28:33.769Z,93.70
2022-12-20T16:31:36.390Z,55.60
2022-12-20T16:34:38.111Z,65.40
2022-12-20T16:37:39.675Z,62.57
2022-12-20T16:40:41.415Z,72.70
2022-12-20T16:43:43.504Z,64.90
2022-12-20T16:46:45.829Z,86.00
2022-12-20T16:49:52.223Z,80.60
2022-12-20T16:52:57.082Z,86.80
2022-12-20T16:55:58.805Z,80.63
2022-12-20T16:59:23.684Z,59.67
2022-12-20T17:02:25.514Z,68.23
2022-12-20T17:05:31.660Z,82.03
2022-12-20T17:11:52.585Z,77.03
2022-12-20T17:14:54.236Z,86.80
2022-12-20T17:17:59.016Z,92.33
2022-12-20T17:21:04.897Z,74.27
2022-12-20T17:24:08.979Z,65.90
2022-12-20T17:27:19.554Z,63.17
2022-12-20T17:30:22.630Z,67.53
2022-12-20T17:33:24.347Z,73.30
2022-12-20T17:36:35.881Z,78.07
2022-12-20T17:39:48.556Z,83.83
2022-12-20T17:42:53.529Z,78.43
2022-12-20T17:45:55.246Z,66.93
2022-12-20T17:49:04.400Z,72.23
2022-12-20T17:52:08.840Z,80.40
2022-12-20T17:55:18.775Z,69.47
2022-12-20T17:58:20.393Z,68.70
2022-12-20T18:01:23.932Z,73.30
2022-12-20T18:04:27.918Z,71.70
2022-12-20T18:07:32.243Z,68.27
2022-12-20T18:10:43.447Z,67.30
2022-12-20T18:13:53.105Z,71.33
2022-12-20T18:16:55.737Z,72.07
2022-12-20T18:19:57.949Z,105.10
2022-12-20T18:22:59.627Z,67.30
2022-12-20T18:26:15.832Z,89.23
2022-12-20T18:29:20.195Z,84.43
2022-12-20T18:32:26.710Z,77.97
2022-12-20T18:35:28.518Z,77.73
2022-12-20T18:38:31.942Z,68.27
2022-12-20T18:41:37.931Z,67.43
2022-12-20T18:44:39.629Z,67.00
2022-12-20T18:47:42.684Z,62.17
2022-12-20T18:54:15.006Z,67.50
2022-12-20T18:57:16.868Z,61.00
2022-12-20T19:00:19.380Z,82.20
2022-12-20T19:03:23.456Z,94.20
2022-12-20T19:06:25.355Z,79.87
2022-12-20T19:09:27.327Z,83.87
2022-12-20T19:12:30.547Z,101.17
2022-12-20T19:15:32.543Z,68.87
2022-12-20T19:18:34.413Z,81.07
2022-12-20T19:21:37.654Z,75.77
2022-12-20T19:24:39.354Z,67.87
2022-12-20T19:27:41.046Z,61.50
2022-12-20T19:30:42.883Z,70.67
2022-12-20T19:33:45.657Z,70.97
2022-12-20T19:36:48.340Z,68.47
2022-12-20T19:39:52.189Z,64.20
2022-12-20T19:42:53.882Z,62.70
2022-12-20T19:45:58.645Z,67.07
2022-12-20T19:49:00.468Z,69.13
2022-12-20T19:52:02.266Z,63.03
2022-12-20T19:55:04.058Z,69.37
2022-12-20T19:58:05.656Z,75.70
2022-12-20T20:01:08.023Z,73.10
2022-12-20T20:04:10.164Z,67.33
2022-12-20T20:07:11.878Z,61.20
2022-12-20T20:10:13.540Z,59.73
2022-12-20T20:13:15.431Z,62.33
2022-12-20T20:16:22.231Z,58.70
2022-12-20T20:19:24.489Z,56.50
2022-12-20T20:22:26.083Z,66.80
2022-12-20T20:25:27.692Z,73.80
2022-12-20T20:28:33.116Z,64.93
2022-12-20T20:31:37.423Z,76.47
2022-12-20T20:34:39.157Z,80.80
2022-12-20T20:37:40.768Z,82.00
2022-12-20T20:40:42.398Z,75.20
2022-12-20T20:43:44.295Z,75.60
2022-12-20T20:46:45.899Z,56.30
2022-12-20T20:49:47.562Z,50.83
2022-12-20T20:52:49.252Z,61.73
2022-12-20T20:55:51.205Z,54.17
2022-12-20T20:58:55.226Z,48.50
2022-12-20T21:01:59.368Z,54.37
2022-12-20T21:05:51.967Z,51.83
2022-12-20T21:08:22.707Z,54.47
2022-12-20T21:11:24.548Z,56.73
2022-12-20T21:14:53.466Z,55.27
2022-12-20T21:17:47.911Z,43.73
2022-12-20T21:20:50.162Z,47.87
2022-12-20T21:23:52.842Z,44.37
2022-12-20T21:26:55.318Z,46.50
2022-12-20T21:29:56.951Z,45.97
2022-12-20T21:32:58.612Z,46.23
2022-12-20T21:36:00.269Z,43.67
2022-12-20T21:39:02.104Z,39.80
2022-12-20T21:42:03.772Z,42.23
2022-12-20T21:45:05.648Z,43.83
2022-12-20T21:48:07.319Z,35.90
2022-12-20T21:51:12.885Z,40.70
2022-12-20T21:54:14.632Z,42.73
2022-12-20T21:57:16.260Z,41.30
2022-12-20T22:00:19.766Z,43.90
2022-12-20T22:03:22.304Z,45.30
2022-12-20T22:06:24.038Z,51.40
2022-12-20T22:09:25.662Z,45.10
2022-12-20T22:12:27.270Z,43.17
2022-12-20T22:15:28.809Z,53.60
2022-12-20T22:18:30.435Z,55.50
2022-12-20T22:21:33.419Z,56.20
2022-12-20T22:24:37.280Z,50.77
2022-12-20T22:27:38.922Z,51.77
2022-12-20T22:30:41.532Z,54.23
2022-12-20T22:33:43.281Z,53.63
2022-12-20T22:36:44.884Z,52.20
2022-12-20T22:39:46.589Z,55.10
2022-12-20T22:42:48.154Z,59.23
2022-12-20T22:45:59.588Z,49.90
2022-12-20T22:49:01.583Z,47.23
2022-12-20T22:52:07.798Z,37.03
2022-12-20T22:55:09.752Z,39.67
2022-12-20T22:58:11.353Z,34.53
2022-12-20T23:01:13.731Z,39.60
2022-12-20T23:04:15.491Z,35.30
2022-12-20T23:07:17.371Z,38.00
2022-12-20T23:10:37.582Z,38.73
2022-12-20T23:13:58.391Z,34.93
2022-12-20T23:17:00.586Z,31.20
2022-12-20T23:20:21.030Z,29.30
2022-12-20T23:23:22.708Z,31.13
2022-12-20T23:26:24.368Z,30.50
2022-12-20T23:29:26.060Z,33.80
2022-12-20T23:32:27.721Z,33.53
2022-12-20T23:35:29.513Z,33.03
2022-12-20T23:38:32.171Z,30.40
2022-12-20T23:41:34.092Z,29.53
2022-12-20T23:44:35.733Z,30.43
2022-12-20T23:47:37.363Z,29.80
2022-12-20T23:50:38.961Z,27.33
2022-12-20T23:53:40.592Z,29.10
2022-12-20T23:56:42.232Z,32.40
2022-12-20T23:59:43.857Z,77.77
